createdAt,value
2019-04-20T00:01:44.905Z,14.93
2019-04-20T00:04:20.501Z,14.91
2019-04-20T00:06:48.541Z,14.97
2019-04-20T00:09:19.348Z,14.89
2019-04-20T00:11:53.565Z,14.84
2019-04-20T00:14:21.900Z,14.89
2019-04-20T00:16:44.563Z,14.87
2019-04-20T00:19:15.340Z,14.89
2019-04-20T00:21:52.705Z,14.98
2019-04-20T00:24:27.572Z,14.81
2019-04-20T00:27:13.687Z,14.74
2019-04-20T00:29:40.712Z,14.65
2019-04-20T00:32:02.569Z,14.60
2019-04-20T00:34:30.071Z,14.56
2019-04-20T00:36:56.342Z,14.58
2019-04-20T00:39:25.873Z,14.53
2019-04-20T00:42:00.424Z,14.42
2019-04-20T00:44:30.383Z,14.41
2019-04-20T00:47:08.527Z,14.36
2019-04-20T00:49:38.813Z,14.13
2019-04-20T00:52:24.289Z,14.22
2019-04-20T00:54:28.471Z,14.25
2019-04-20T00:57:11.817Z,14.26
2019-04-20T00:59:42.882Z,14.25
2019-04-20T01:02:14.056Z,14.12
2019-04-20T01:04:50.452Z,13.97
2019-04-20T01:07:17.678Z,13.92
2019-04-20T01:09:51.968Z,13.86
2019-04-20T01:12:25.918Z,13.73
2019-04-20T01:14:55.993Z,13.65
2019-04-20T01:17:20.678Z,13.75
2019-04-20T01:19:52.705Z,13.74
2019-04-20T01:22:22.405Z,13.63
2019-04-20T01:24:51.576Z,13.54
2019-04-20T01:27:32.190Z,13.60
2019-04-20T01:30:00.568Z,13.66
2019-04-20T01:32:31.103Z,13.63
2019-04-20T01:34:58.597Z,13.48
2019-04-20T01:37:32.827Z,13.37
2019-04-20T01:39:55.449Z,13.24
2019-04-20T01:42:21.388Z,13.32
2019-04-20T01:44:52.432Z,13.31
2019-04-20T01:47:23.895Z,13.27
2019-04-20T01:49:59.858Z,13.24
2019-04-20T01:52:27.010Z,13.04
2019-04-20T01:55:24.495Z,13.00
2019-04-20T01:58:00.424Z,12.93
2019-04-20T02:00:35.209Z,12.84
2019-04-20T02:03:22.857Z,12.90
2019-04-20T02:05:56.443Z,12.95
2019-04-20T02:08:21.462Z,13.01
2019-04-20T02:10:53.674Z,12.97
2019-04-20T02:13:19.576Z,12.97
2019-04-20T02:15:54.123Z,12.76
2019-04-20T02:18:31.826Z,12.54
2019-04-20T02:21:05.161Z,12.34
2019-04-20T02:23:31.793Z,12.22
2019-04-20T02:25:50.068Z,12.08
2019-04-20T02:28:38.281Z,11.99
2019-04-20T02:31:24.831Z,12.06
2019-04-20T02:33:59.220Z,11.95
2019-04-20T02:36:47.869Z,11.94
2019-04-20T02:41:43.998Z,11.98
2019-04-20T02:44:17.993Z,11.94
2019-04-20T02:46:43.002Z,11.97
2019-04-20T02:49:17.595Z,11.88
2019-04-20T02:51:41.159Z,11.81
2019-04-20T02:54:17.039Z,11.58
2019-04-20T02:56:40.261Z,11.55
2019-04-20T02:59:25.031Z,11.46
2019-04-20T03:01:29.412Z,11.55
2019-04-20T03:03:44.975Z,11.54
2019-04-20T03:06:20.739Z,11.25
2019-04-20T03:09:06.332Z,11.17
2019-04-20T03:11:44.208Z,11.10
2019-04-20T03:13:59.386Z,11.02
2019-04-20T03:16:25.185Z,10.96
2019-04-20T03:18:57.402Z,10.91
2019-04-20T03:21:33.448Z,11.04
2019-04-20T03:24:08.394Z,10.93
2019-04-20T03:26:36.820Z,11.00
2019-04-20T03:29:18.860Z,10.87
2019-04-20T03:35:03.320Z,10.65
2019-04-20T03:37:10.913Z,10.84
2019-04-20T03:39:28.500Z,10.91
2019-04-20T03:41:48.266Z,10.88
2019-04-20T03:44:17.643Z,10.84
2019-04-20T03:46:51.560Z,10.70
2019-04-20T03:49:37.982Z,10.50
2019-04-20T03:52:02.760Z,10.46
2019-04-20T03:54:30.828Z,10.38
2019-04-20T03:57:15.634Z,10.43
2019-04-20T03:59:44.642Z,10.36
2019-04-20T04:05:06.246Z,10.23
2019-04-20T04:07:28.289Z,10.17
2019-04-20T04:10:06.962Z,10.15
2019-04-20T04:12:56.796Z,10.17
2019-04-20T04:15:25.436Z,10.24
2019-04-20T04:17:57.932Z,10.16
2019-04-20T04:20:33.251Z,10.23
2019-04-20T04:23:10.364Z,10.14
2019-04-20T04:25:35.560Z,10.20
2019-04-20T04:28:10.801Z,10.26
2019-04-20T04:30:36.596Z,10.34
2019-04-20T04:35:38.791Z,10.15
2019-04-20T04:38:12.660Z,10.24
2019-04-20T04:40:56.709Z,10.08
2019-04-20T04:43:16.040Z,9.99
2019-04-20T04:45:28.523Z,9.96
2019-04-20T04:47:57.698Z,9.90
2019-04-20T04:50:28.613Z,9.85
2019-04-20T04:53:04.662Z,9.83
2019-04-20T04:55:37.056Z,9.79
2019-04-20T04:57:58.138Z,9.85
2019-04-20T05:00:31.221Z,9.79
2019-04-20T05:03:07.008Z,9.86
2019-04-20T05:05:55.921Z,9.85
2019-04-20T05:08:15.430Z,9.81
2019-04-20T05:10:37.014Z,9.74
2019-04-20T05:13:05.568Z,9.70
2019-04-20T05:15:48.429Z,9.70
2019-04-20T05:18:32.142Z,9.84
2019-04-20T05:20:59.094Z,9.83
2019-04-20T05:23:30.264Z,9.88
2019-04-20T05:26:08.489Z,9.84
2019-04-20T05:28:30.508Z,9.80
2019-04-20T05:30:54.979Z,9.89
2019-04-20T05:33:27.798Z,9.83
2019-04-20T05:36:16.348Z,9.89
2019-04-20T05:38:50.375Z,9.89
2019-04-20T05:41:09.935Z,9.95
2019-04-20T05:43:41.706Z,9.98
2019-04-20T05:46:16.936Z,9.99
2019-04-20T05:48:48.751Z,10.02
2019-04-20T05:51:21.164Z,10.11
2019-04-20T05:53:50.351Z,10.28
2019-04-20T05:56:20.338Z,10.33
2019-04-20T05:58:53.591Z,10.38
2019-04-20T06:01:25.868Z,10.47
2019-04-20T06:03:49.028Z,10.60
2019-04-20T06:06:23.477Z,10.70
2019-04-20T06:08:59.942Z,10.84
2019-04-20T06:11:21.181Z,10.94
2019-04-20T06:13:50.721Z,11.01
2019-04-20T06:19:33.180Z,11.19
2019-04-20T06:22:03.344Z,11.31
2019-04-20T06:24:55.321Z,11.41
2019-04-20T06:27:06.246Z,11.50
2019-04-20T06:29:39.031Z,11.57
2019-04-20T06:32:10.873Z,11.65
2019-04-20T06:34:49.023Z,11.74
2019-04-20T06:37:04.115Z,11.81
2019-04-20T06:39:38.617Z,11.87
2019-04-20T06:42:14.046Z,11.99
2019-04-20T06:44:34.360Z,12.08
2019-04-20T06:47:11.682Z,12.14
2019-04-20T06:49:38.432Z,12.18
2019-04-20T06:52:17.165Z,12.23
2019-04-20T06:54:54.110Z,12.29
2019-04-20T06:57:31.314Z,12.37
2019-04-20T07:00:03.763Z,12.41
2019-04-20T07:04:59.974Z,12.52
2019-04-20T07:07:29.772Z,12.60
2019-04-20T07:10:12.123Z,12.67
2019-04-20T07:12:27.552Z,12.72
2019-04-20T07:14:53.002Z,12.80
2019-04-20T07:17:43.808Z,12.88
2019-04-20T07:20:00.266Z,12.95
2019-04-20T07:22:53.874Z,13.01
2019-04-20T07:25:07.966Z,13.06
2019-04-20T07:27:36.866Z,13.10
2019-04-20T07:30:07.837Z,13.14
2019-04-20T07:32:44.278Z,13.18
2019-04-20T07:35:08.790Z,13.25
2019-04-20T07:38:03.304Z,13.37
2019-04-20T07:40:10.455Z,13.48
2019-04-20T07:42:40.697Z,13.58
2019-04-20T07:45:16.451Z,13.65
2019-04-20T07:48:01.437Z,13.88
2019-04-20T07:50:08.734Z,14.06
2019-04-20T07:52:33.818Z,14.21
2019-04-20T07:55:35.191Z,14.44
2019-04-20T07:57:39.070Z,14.59
2019-04-20T08:00:13.722Z,14.53
2019-04-20T08:02:48.798Z,14.48
2019-04-20T08:05:27.844Z,14.57
2019-04-20T08:07:53.387Z,14.55
2019-04-20T08:10:32.439Z,14.55
2019-04-20T08:13:10.711Z,14.85
2019-04-20T08:15:46.144Z,15.08
2019-04-20T08:18:16.414Z,15.46
2019-04-20T08:20:43.904Z,15.26
2019-04-20T08:23:14.305Z,15.08
2019-04-20T08:25:30.607Z,15.40
2019-04-20T08:28:16.747Z,15.42
2019-04-20T08:31:06.332Z,15.39
2019-04-20T08:33:55.026Z,15.43
2019-04-20T08:36:16.718Z,15.98
2019-04-20T08:41:12.871Z,15.99
2019-04-20T08:43:57.419Z,15.98
2019-04-20T08:46:20.702Z,15.76
2019-04-20T08:48:53.523Z,15.64
2019-04-20T08:51:19.986Z,15.74
2019-04-20T08:53:51.759Z,15.91
2019-04-20T08:56:14.232Z,15.97
2019-04-20T08:58:33.940Z,15.83
2019-04-20T09:01:05.605Z,15.71
2019-04-20T09:03:47.538Z,16.13
2019-04-20T09:06:14.541Z,16.49
2019-04-20T09:08:46.596Z,16.64
2019-04-20T09:11:19.727Z,17.16
2019-04-20T09:13:42.488Z,17.27
2019-04-20T09:16:04.803Z,17.24
2019-04-20T09:18:44.347Z,17.64
2019-04-20T09:21:13.674Z,17.88
2019-04-20T09:23:58.026Z,18.10
2019-04-20T09:26:27.046Z,18.20
2019-04-20T09:29:01.673Z,18.24
2019-04-20T09:31:34.092Z,18.23
2019-04-20T09:34:13.046Z,18.11
2019-04-20T09:39:24.655Z,17.79
2019-04-20T09:42:00.902Z,18.15
2019-04-20T09:44:24.549Z,18.31
2019-04-20T09:46:56.342Z,18.32
2019-04-20T09:49:37.747Z,18.37
2019-04-20T09:52:06.839Z,18.30
2019-04-20T09:54:39.981Z,18.62
2019-04-20T09:57:13.770Z,18.70
2019-04-20T09:59:44.803Z,18.54
2019-04-20T10:02:04.550Z,18.40
2019-04-20T10:04:23.950Z,18.49
2019-04-20T10:06:52.597Z,18.21
2019-04-20T10:09:29.529Z,18.22
2019-04-20T10:11:51.234Z,18.16
2019-04-20T10:14:20.048Z,18.17
2019-04-20T10:16:49.732Z,18.05
2019-04-20T10:19:24.859Z,18.48
2019-04-20T10:21:48.696Z,18.82
2019-04-20T10:24:17.118Z,18.59
2019-04-20T10:26:45.543Z,18.70
2019-04-20T10:29:15.362Z,19.06
2019-04-20T10:31:52.693Z,19.31
2019-04-20T10:34:14.109Z,19.06
2019-04-20T10:36:47.904Z,18.92
2019-04-20T10:39:18.433Z,18.93
2019-04-20T10:41:53.532Z,19.38
2019-04-20T10:44:17.237Z,19.17
2019-04-20T10:46:46.947Z,19.28
2019-04-20T10:49:15.534Z,19.40
2019-04-20T10:51:44.041Z,19.27
2019-04-20T10:54:12.537Z,19.04
2019-04-20T10:56:41.472Z,19.10
2019-04-20T10:59:10.036Z,19.04
2019-04-20T11:01:38.476Z,19.20
2019-04-20T11:04:08.355Z,19.01
2019-04-20T11:06:38.569Z,19.11
2019-04-20T11:09:08.930Z,18.98
2019-04-20T11:11:38.682Z,19.30
2019-04-20T11:14:14.500Z,19.56
2019-04-20T11:16:38.251Z,19.76
2019-04-20T11:19:07.419Z,19.69
2019-04-20T11:21:36.524Z,19.53
2019-04-20T11:24:05.230Z,19.39
2019-04-20T11:26:36.597Z,19.64
2019-04-20T11:29:04.230Z,20.02
2019-04-20T11:31:39.109Z,20.19
2019-04-20T11:34:03.895Z,19.96
2019-04-20T11:36:32.977Z,19.84
2019-04-20T11:39:02.921Z,19.61
2019-04-20T11:41:34.011Z,19.41
2019-04-20T11:44:02.044Z,19.32
2019-04-20T11:46:30.592Z,19.39
2019-04-20T11:48:59.474Z,19.34
2019-04-20T11:51:27.986Z,19.73
2019-04-20T11:53:56.550Z,19.94
2019-04-20T11:56:31.445Z,19.84
2019-04-20T11:58:55.135Z,19.79
2019-04-20T12:01:35.017Z,19.82
2019-04-20T12:04:03.977Z,19.86
2019-04-20T12:06:28.921Z,19.67
2019-04-20T12:08:58.965Z,20.04
2019-04-20T12:11:38.412Z,20.22
2019-04-20T12:13:58.665Z,20.20
2019-04-20T12:16:27.855Z,20.24
2019-04-20T12:18:56.743Z,20.48
2019-04-20T12:21:26.476Z,20.87
2019-04-20T12:23:56.192Z,21.40
2019-04-20T12:26:24.978Z,21.84
2019-04-20T12:28:53.872Z,22.25
2019-04-20T12:31:24.750Z,22.57
2019-04-20T12:33:52.641Z,22.92
2019-04-20T12:36:21.146Z,23.29
2019-04-20T12:38:50.903Z,23.48
2019-04-20T12:41:31.119Z,23.89
2019-04-20T12:43:49.863Z,24.25
2019-04-20T12:46:21.427Z,24.19
2019-04-20T12:48:49.372Z,24.45
2019-04-20T12:51:17.904Z,24.76
2019-04-20T12:53:46.702Z,24.89
2019-04-20T12:56:16.811Z,24.97
2019-04-20T12:58:45.513Z,25.19
2019-04-20T13:01:14.624Z,24.99
2019-04-20T13:03:45.571Z,24.95
2019-04-20T13:06:14.635Z,25.34
2019-04-20T13:08:49.898Z,25.40
2019-04-20T13:11:16.205Z,25.54
2019-04-20T13:13:56.534Z,25.78
2019-04-20T13:16:30.381Z,25.94
2019-04-20T13:19:01.543Z,25.91
2019-04-20T13:21:31.201Z,26.05
2019-04-20T13:24:00.880Z,26.26
2019-04-20T13:26:29.520Z,26.15
2019-04-20T13:28:59.378Z,25.99
2019-04-20T13:31:27.910Z,25.85
2019-04-20T13:33:57.201Z,25.90
2019-04-20T13:36:26.180Z,25.87
2019-04-20T13:38:54.618Z,25.98
2019-04-20T13:41:24.122Z,25.97
2019-04-20T13:43:54.831Z,25.61
2019-04-20T13:46:22.987Z,25.88
2019-04-20T13:48:51.526Z,25.94
2019-04-20T13:51:21.026Z,25.83
2019-04-20T13:53:50.775Z,26.16
2019-04-20T13:56:21.766Z,25.95
2019-04-20T13:58:51.958Z,25.62
2019-04-20T14:01:39.015Z,25.78
2019-04-20T14:04:12.684Z,25.63
2019-04-20T14:06:41.822Z,25.61
2019-04-20T14:09:11.843Z,25.72
2019-04-20T14:11:41.414Z,25.87
2019-04-20T14:14:10.856Z,25.73
2019-04-20T14:16:39.444Z,25.68
2019-04-20T14:19:09.193Z,25.59
2019-04-20T14:21:38.464Z,25.59
2019-04-20T14:24:08.773Z,25.62
2019-04-20T14:26:40.349Z,25.52
2019-04-20T14:29:07.642Z,25.32
2019-04-20T14:31:37.427Z,25.45
2019-04-20T14:34:06.854Z,25.19
2019-04-20T14:36:37.021Z,25.24
2019-04-20T14:39:07.897Z,25.44
2019-04-20T14:41:36.401Z,25.40
2019-04-20T14:44:05.803Z,25.31
2019-04-20T14:46:35.751Z,24.97
2019-04-20T14:49:04.919Z,24.93
2019-04-20T14:51:33.679Z,24.82
2019-04-20T14:54:03.264Z,24.93
2019-04-20T14:56:31.794Z,25.10
2019-04-20T14:59:05.279Z,25.13
2019-04-20T15:01:44.947Z,25.09
2019-04-20T15:04:17.993Z,24.93
2019-04-20T15:06:44.456Z,24.76
2019-04-20T15:09:13.098Z,24.63
2019-04-20T15:11:44.267Z,24.37
2019-04-20T15:14:11.672Z,24.34
2019-04-20T15:16:40.400Z,24.43
2019-04-20T15:19:11.798Z,24.49
2019-04-20T15:21:42.104Z,24.37
2019-04-20T15:24:11.351Z,24.43
2019-04-20T15:26:40.446Z,24.42
2019-04-20T15:29:10.383Z,24.35
2019-04-20T15:31:39.098Z,24.36
2019-04-20T15:34:08.833Z,24.32
2019-04-20T15:36:38.166Z,24.35
2019-04-20T15:39:07.557Z,24.27
2019-04-20T15:41:36.003Z,24.28
2019-04-20T15:44:04.785Z,24.22
2019-04-20T15:46:34.741Z,24.19
2019-04-20T15:49:04.080Z,24.12
2019-04-20T15:51:34.150Z,24.15
2019-04-20T15:54:02.763Z,24.14
2019-04-20T15:56:31.167Z,24.19
2019-04-20T15:58:59.601Z,24.16
2019-04-20T16:01:30.304Z,24.15
2019-04-20T16:04:01.528Z,24.10
2019-04-20T16:06:31.569Z,24.17
2019-04-20T16:09:02.102Z,24.24
2019-04-20T16:11:31.052Z,24.18
2019-04-20T16:14:00.184Z,24.12
2019-04-20T16:16:31.949Z,24.16
2019-04-20T16:19:04.032Z,24.14
2019-04-20T16:21:33.953Z,24.16
2019-04-20T16:24:02.382Z,24.14
2019-04-20T16:26:33.503Z,24.14
2019-04-20T16:29:03.716Z,24.19
2019-04-20T16:31:32.738Z,24.17
2019-04-20T16:34:01.264Z,24.20
2019-04-20T16:36:30.499Z,24.23
2019-04-20T16:38:59.520Z,24.24
2019-04-20T16:41:28.426Z,24.22
2019-04-20T16:43:57.467Z,24.25
2019-04-20T16:46:26.095Z,24.21
2019-04-20T16:48:54.958Z,24.19
2019-04-20T16:51:25.163Z,24.15
2019-04-20T16:53:54.014Z,24.10
2019-04-20T16:56:22.586Z,24.00
2019-04-20T16:58:57.256Z,24.02
2019-04-20T17:01:21.591Z,24.00
2019-04-20T17:04:01.050Z,24.00
2019-04-20T17:06:22.195Z,23.93
2019-04-20T17:08:51.333Z,23.92
2019-04-20T17:11:19.945Z,21.80
2019-04-20T17:13:52.761Z,23.69
2019-04-20T17:19:41.541Z,23.51
2019-04-20T17:35:00.513Z,23.26
2019-04-20T17:37:15.889Z,23.08
2019-04-20T17:46:02.747Z,22.83
2019-04-20T17:48:37.186Z,22.59
2019-04-20T17:51:20.760Z,22.48
2019-04-20T17:53:37.424Z,22.38
2019-04-20T17:56:02.361Z,22.26
2019-04-20T17:58:34.431Z,22.17
2019-04-20T18:01:08.680Z,22.05
2019-04-20T18:06:27.729Z,21.86
2019-04-20T18:08:59.880Z,21.82
2019-04-20T18:11:21.368Z,21.76
2019-04-20T18:13:47.827Z,21.62
2019-04-20T18:16:41.835Z,21.53
2019-04-20T18:19:05.671Z,21.47
2019-04-20T18:21:43.549Z,21.36
2019-04-20T18:24:24.009Z,21.32
2019-04-20T18:26:59.654Z,21.26
2019-04-20T18:29:32.680Z,21.23
2019-04-20T18:31:44.352Z,21.09
2019-04-20T18:34:23.717Z,20.96
2019-04-20T18:36:51.576Z,20.84
2019-04-20T18:39:30.516Z,20.79
2019-04-20T18:42:01.206Z,20.75
2019-04-20T18:44:32.373Z,20.65
2019-04-20T18:47:26.433Z,20.56
2019-04-20T19:13:22.366Z,19.95
2019-04-20T19:16:16.564Z,19.85
2019-04-20T19:19:04.370Z,19.80
2019-04-20T19:21:29.564Z,19.76
2019-04-20T19:24:06.526Z,19.69
2019-04-20T19:26:28.648Z,19.62
2019-04-20T19:29:12.005Z,19.57
2019-04-20T19:31:44.774Z,19.55
2019-04-20T19:34:18.562Z,19.50
2019-04-20T19:36:36.778Z,19.42
2019-04-20T19:39:15.125Z,19.36
2019-04-20T19:41:41.795Z,19.34
2019-04-20T19:44:13.091Z,19.31
2019-04-20T19:46:48.254Z,19.28
2019-04-20T19:49:16.636Z,19.21
2019-04-20T19:51:55.155Z,19.19
2019-04-20T19:54:25.492Z,19.13
2019-04-20T19:56:47.037Z,19.10
2019-04-20T19:59:11.163Z,19.06
2019-04-20T20:01:31.687Z,18.99
2019-04-20T20:04:04.003Z,18.97
2019-04-20T20:06:39.133Z,18.91
2019-04-20T20:09:05.817Z,18.86
2019-04-20T20:11:40.450Z,18.80
2019-04-20T20:14:10.975Z,18.75
2019-04-20T20:17:02.685Z,18.71
2019-04-20T20:19:29.538Z,18.70
2019-04-20T20:22:00.365Z,18.68
2019-04-20T20:24:17.997Z,18.65
2019-04-20T20:26:53.367Z,18.66
2019-04-20T20:29:28.388Z,18.60
2019-04-20T20:32:05.027Z,18.54
2019-04-20T20:34:28.583Z,18.50
2019-04-20T20:36:59.835Z,18.43
2019-04-20T20:39:27.725Z,18.37
2019-04-20T20:42:01.686Z,18.36
2019-04-20T20:44:37.276Z,18.36
2019-04-20T20:47:05.832Z,18.32
2019-04-20T20:49:48.609Z,18.28
2019-04-20T20:52:14.548Z,18.24
2019-04-20T20:54:40.517Z,18.23
2019-04-20T20:57:02.820Z,18.18
2019-04-20T20:59:34.762Z,18.15
2019-04-20T21:02:04.401Z,18.11
2019-04-20T21:04:25.769Z,18.07
2019-04-20T21:06:54.899Z,18.02
2019-04-20T21:09:25.457Z,17.98
2019-04-20T21:12:00.895Z,17.95
2019-04-20T21:14:27.893Z,17.85
2019-04-20T21:17:02.759Z,17.86
2019-04-20T21:19:45.193Z,17.82
2019-04-20T21:22:02.986Z,17.80
2019-04-20T21:24:27.274Z,17.76
2019-04-20T21:27:01.620Z,17.73
2019-04-20T21:29:33.793Z,17.71
2019-04-20T21:32:03.371Z,17.68
2019-04-20T21:34:27.353Z,17.64
2019-04-20T21:37:03.497Z,17.62
2019-04-20T21:39:37.086Z,17.54
2019-04-20T21:42:04.369Z,17.52
2019-04-20T21:44:31.712Z,17.46
2019-04-20T21:46:58.223Z,17.43
2019-04-20T21:49:43.974Z,17.39
2019-04-20T21:52:01.695Z,17.38
2019-04-20T21:54:27.798Z,17.34
2019-04-20T21:57:01.653Z,17.29
2019-04-20T21:59:34.610Z,17.27
2019-04-20T22:02:09.875Z,17.20
2019-04-20T22:04:29.132Z,17.19
2019-04-20T22:06:58.302Z,17.13
2019-04-20T22:09:34.507Z,17.08
2019-04-20T22:11:58.507Z,17.06
2019-04-20T22:14:31.331Z,17.01
2019-04-20T22:17:00.049Z,17.00
2019-04-20T22:19:36.655Z,16.98
2019-04-20T22:22:07.705Z,16.93
2019-04-20T22:24:43.764Z,16.89
2019-04-20T22:27:06.339Z,16.83
2019-04-20T22:29:28.134Z,16.84
2019-04-20T22:32:03.934Z,16.78
2019-04-20T22:34:29.843Z,16.73
2019-04-20T22:36:58.476Z,16.72
2019-04-20T22:39:32.225Z,16.67
2019-04-20T22:42:04.930Z,16.61
2019-04-20T22:44:31.054Z,16.58
2019-04-20T22:47:04.157Z,16.57
2019-04-20T22:49:44.219Z,16.55
2019-04-20T22:52:18.579Z,16.51
2019-04-20T22:54:44.707Z,16.39
2019-04-20T22:57:09.374Z,16.39
2019-04-20T22:59:42.168Z,16.34
2019-04-20T23:02:04.158Z,16.31
2019-04-20T23:04:33.042Z,16.30
2019-04-20T23:07:03.009Z,16.27
2019-04-20T23:09:34.127Z,16.28
2019-04-20T23:12:09.648Z,16.22
2019-04-20T23:14:36.409Z,16.20
2019-04-20T23:22:13.565Z,16.14
2019-04-20T23:24:45.002Z,16.05
2019-04-20T23:27:20.834Z,16.03
2019-04-20T23:29:45.124Z,15.98
2019-04-20T23:32:15.935Z,15.95
2019-04-20T23:34:44.750Z,15.91
2019-04-20T23:37:17.002Z,15.86
2019-04-20T23:39:47.323Z,15.82
2019-04-20T23:42:16.117Z,15.80
2019-04-20T23:45:02.218Z,15.77
2019-04-20T23:47:54.157Z,15.78
2019-04-20T23:53:24.324Z,15.66
2019-04-20T23:55:37.138Z,15.62
2019-04-20T23:58:08.784Z,15.58
